Terminal Aerodrome Forecast
Issued by NWS Melbourne, FL

Home | Current Version | Previous Version | Text Only | Print | Product List | Glossary On
Versions: 1 2 3 4 5 6 7 8 9 10 11 12
000
FTUS42 KMLB 251100
TAFVRB
TAF
KVRB 251123Z 2512/2612 33009KT P6SM SCT050
     FM251500 01013KT P6SM SCT040
     FM260000 36006KT P6SM SKC=

USA.gov is the U.S. government's official web portal to all federal, state and local government web resources and services.